Bennington, New Hampshire
Current Conditions -  °F | °C
As of 6:52 AM on Friday 19 Dec 2014 (Local Time) from KAFN Reporting Station
Overcast Overcast  
Wind Chill: 24°   Ceiling: 2200
Heat Index: 29°   Visibility: 10mi
Dew Point: 21°   Wind: 5mph
Humidity: 72%   Direction: 330°NNW
Pressure: 29.88"   Gusts: NA
Location:  43°N, 71.92°W
Report Text: KAFN 191152Z AUTO 33004KT 10SM BKN022 OVC038 M02/M06 A2988 RMK AO2 SLP135 T10171061 11006 21017 53011
Loading
Personal Weather Stations






























Interactive Weather Map New forecast layout! Learn more

10-Day Weather Forecast

Advertisements
Track Severe Weather on mobile